Time;durP1;ratioP1;P1;durP2;ratioP2;P2;SDS_P1;SDS_P2;PMS_P1;PMS_P2;Temp;Humidity;BMP_temperature;BMP_pressure;BME280_temperature;BME280_humidity;BME280_pressure;Samples;Min_cycle;Max_cycle;Signal;HPM_P1;HPM_P2
2021/12/26 00:00:27;;;;;;;4.57;2.60;;;;;;;-4.72;100.00;100935.66;5037503;28;20060;-70
2021/12/26 00:02:53;;;;;;;;;;;;;;;-4.67;100.00;100947.34;5019417;28;20852;-69
2021/12/26 00:05:18;;;;;;;5.25;2.97;;;;;;;-4.66;100.00;100933.00;5014050;28;19917;-70
2021/12/26 00:07:45;;;;;;;8.02;3.13;;;;;;;-4.74;100.00;100933.22;5015283;28;20118;-70
2021/12/26 00:10:13;;;;;;;5.28;2.83;;;;;;;-4.75;100.00;100939.53;5013897;28;20051;-69
2021/12/26 00:12:39;;;;;;;5.38;3.00;;;;;;;-4.78;100.00;100934.63;5015505;28;20041;-69
2021/12/26 00:15:06;;;;;;;5.38;2.97;;;;;;;-4.67;100.00;100931.38;5013457;28;20364;-70
2021/12/26 00:17:31;;;;;;;3.92;2.60;;;;;;;-4.75;100.00;100928.91;5013380;28;20045;-70
2021/12/26 00:19:57;;;;;;;6.22;2.70;;;;;;;-4.67;100.00;100936.72;5015736;28;20079;-70
2021/12/26 00:22:22;;;;;;;7.43;3.90;;;;;;;-4.73;100.00;100929.53;5015722;28;20367;-69
2021/12/26 00:24:48;;;;;;;7.85;3.28;;;;;;;-4.70;100.00;100931.78;5014889;28;20487;-70
2021/12/26 00:27:14;;;;;;;3.55;2.63;;;;;;;-4.76;100.00;100937.91;5015651;28;20076;-70
2021/12/26 00:29:40;;;;;;;4.88;2.78;;;;;;;-4.78;100.00;100929.31;5017142;28;20308;-71
2021/12/26 00:32:06;;;;;;;5.60;3.42;;;;;;;-4.67;100.00;100931.38;5028397;28;20036;-70
2021/12/26 00:34:32;;;;;;;6.93;3.03;;;;;;;-4.73;100.00;100926.88;5037442;28;20113;-69
2021/12/26 00:36:58;;;;;;;7.07;3.08;;;;;;;-4.66;100.00;100924.22;5035231;28;20057;-70
2021/12/26 00:39:23;;;;;;;7.18;3.30;;;;;;;-4.76;100.00;100921.97;5036260;28;20051;-69
2021/12/26 00:41:48;;;;;;;6.50;2.72;;;;;;;-4.82;100.00;100922.75;5037763;28;20404;-69
2021/12/26 00:44:14;;;;;;;3.58;2.35;;;;;;;-4.81;100.00;100925.19;5036632;28;20087;-69
2021/12/26 00:46:39;;;;;;;4.32;2.53;;;;;;;-4.71;100.00;100914.19;5036965;28;20074;-69
2021/12/26 00:49:05;;;;;;;5.32;3.20;;;;;;;-4.72;100.00;100928.50;5029866;28;20233;-69
2021/12/26 00:51:31;;;;;;;5.15;2.53;;;;;;;-4.73;100.00;100920.75;5016879;28;20128;-70
2021/12/26 00:53:56;;;;;;;6.93;3.17;;;;;;;-4.71;100.00;100918.69;5018189;28;20054;-69
2021/12/26 00:56:22;;;;;;;4.38;2.80;;;;;;;-4.74;100.00;100919.06;5018298;28;20049;-69
2021/12/26 00:58:48;;;;;;;7.35;2.88;;;;;;;-4.85;100.00;100928.47;5016505;28;20052;-70
2021/12/26 01:01:14;;;;;;;3.97;2.35;;;;;;;-4.90;100.00;100906.97;5014102;28;20120;-70
2021/12/26 01:03:39;;;;;;;5.90;2.63;;;;;;;-4.79;100.00;100912.53;5032058;28;20102;-70
2021/12/26 01:06:06;;;;;;;7.60;2.78;;;;;;;-4.79;100.00;100917.03;5033395;28;20203;-70
2021/12/26 01:08:37;;;;;;;4.63;2.50;;;;;;;-4.79;100.00;100917.03;5032470;28;20065;-70
2021/12/26 01:11:19;;;;;;;5.35;2.78;;;;;;;-4.83;100.00;100915.78;5018444;28;20053;-69
2021/12/26 01:13:47;;;;;;;6.55;3.20;;;;;;;-4.83;100.00;100907.81;4995508;28;20045;-70
2021/12/26 01:16:34;;;;;;;5.07;2.80;;;;;;;-4.92;100.00;100903.69;5017010;28;20167;-71
2021/12/26 01:19:06;;;;;;;3.90;2.50;;;;;;;-4.82;100.00;100904.94;5031992;28;20114;-70
2021/12/26 01:21:32;;;;;;;4.72;2.88;;;;;;;-4.88;100.00;100886.31;5034198;28;20488;-70
2021/12/26 01:24:11;;;;;;;5.00;2.42;;;;;;;-4.95;100.00;100896.09;5030553;28;20132;-70
2021/12/26 01:26:37;;;;;;;5.18;2.97;;;;;;;-4.94;100.00;100897.78;5030767;28;20041;-71
2021/12/26 01:29:04;;;;;;;4.20;2.45;;;;;;;-4.85;100.00;100891.25;5032139;28;20144;-71
2021/12/26 01:31:32;;;;;;;8.52;3.20;;;;;;;-4.96;100.00;100889.97;5031653;28;20082;-70
2021/12/26 01:34:27;;;;;;;4.40;2.70;;;;;;;-4.89;100.00;100896.13;5033689;28;20084;-69
2021/12/26 01:37:07;;;;;;;11.43;2.92;;;;;;;-4.94;100.00;100903.09;5031370;28;20404;-70
2021/12/26 01:39:43;;;;;;;5.05;2.80;;;;;;;-4.89;100.00;100903.28;5031729;28;20201;-70
2021/12/26 01:42:15;;;;;;;4.70;2.50;;;;;;;-5.04;100.00;100909.56;5032281;28;20045;-70
2021/12/26 01:44:48;;;;;;;3.25;2.42;;;;;;;-4.95;100.00;100906.75;5033040;28;20087;-70
2021/12/26 01:47:15;;;;;;;9.05;2.95;;;;;;;-4.86;100.00;100905.53;5016425;28;20484;-69
2021/12/26 01:49:41;;;;;;;7.50;2.38;;;;;;;-4.99;100.00;100909.00;5019231;28;20037;-69
2021/12/26 01:52:07;;;;;;;5.55;2.20;;;;;;;-4.96;100.00;100910.44;5012144;28;20571;-71
2021/12/26 01:57:05;;;;;;;6.07;2.92;;;;;;;-5.03;100.00;100910.41;5012067;28;20484;-69
2021/12/26 01:59:30;;;;;;;5.22;2.80;;;;;;;-5.06;100.00;100916.09;5011720;28;20459;-70
2021/12/26 02:02:05;;;;;;;5.75;2.72;;;;;;;-5.06;100.00;100911.63;5012336;28;20445;-70
2021/12/26 02:04:32;;;;;;;6.00;3.13;;;;;;;-4.96;100.00;100915.75;5013346;28;20037;-69
2021/12/26 02:07:00;;;;;;;6.35;3.03;;;;;;;-5.02;100.00;100912.88;5011747;28;20228;-69
2021/12/26 02:09:26;;;;;;;5.22;3.35;;;;;;;-5.18;100.00;100907.88;5011910;28;20033;-70
2021/12/26 02:11:55;;;;;;;4.88;2.95;;;;;;;-5.08;100.00;100903.03;5011011;28;20040;-71
2021/12/26 02:14:21;;;;;;;4.97;2.60;;;;;;;-5.02;100.00;100896.91;5011129;28;20033;-69
2021/12/26 02:17:06;;;;;;;5.97;2.85;;;;;;;-4.95;100.00;100904.09;4997713;28;20125;-70
2021/12/26 02:19:32;;;;;;;6.22;3.08;;;;;;;-5.04;100.00;100901.59;5011338;28;20378;-70
2021/12/26 02:22:04;;;;;;;7.68;3.15;;;;;;;-5.18;100.00;100907.06;5011536;28;20041;-70
2021/12/26 02:24:53;;;;;;;7.72;3.17;;;;;;;-5.26;100.00;100900.09;4994824;28;20486;-70
2021/12/26 02:27:33;;;;;;;3.97;2.60;;;;;;;-5.17;100.00;100901.56;5010810;28;20045;-70
2021/12/26 02:30:11;;;;;;;6.13;2.80;;;;;;;-5.24;100.00;100898.03;5010913;28;20040;-69
2021/12/26 02:32:36;;;;;;;4.32;2.58;;;;;;;-5.33;100.00;100900.06;5011867;28;20094;-70
2021/12/26 02:35:02;;;;;;;5.72;2.72;;;;;;;-5.25;100.00;100885.78;5012200;28;20046;-69
2021/12/26 02:37:28;;;;;;;3.85;2.58;;;;;;;-5.23;100.00;100894.38;4995197;28;20045;-70
2021/12/26 02:39:54;;;;;;;4.25;3.13;;;;;;;-5.30;100.00;100888.22;5011692;28;20037;-69
2021/12/26 02:42:22;;;;;;;4.78;2.60;;;;;;;-5.26;100.00;100886.81;5023292;28;20033;-70
2021/12/26 02:44:49;;;;;;;5.85;2.40;;;;;;;-5.38;100.00;100881.25;5031652;28;20036;-70
2021/12/26 02:47:31;;;;;;;3.35;2.80;;;;;;;-5.34;100.00;100879.00;5031267;28;20312;-69
2021/12/26 02:50:01;;;;;;;4.97;3.00;;;;;;;-5.49;100.00;100881.78;5016298;28;20042;-69
2021/12/26 02:52:28;;;;;;;3.42;2.42;;;;;;;-5.53;100.00;100880.53;5011998;28;20030;-69
2021/12/26 02:54:53;;;;;;;4.30;2.47;;;;;;;-5.66;100.00;100878.63;5012024;28;20410;-70
2021/12/26 02:57:19;;;;;;;4.60;2.95;;;;;;;-5.66;100.00;100883.94;5010699;28;20043;-68
2021/12/26 02:59:44;;;;;;;9.18;3.38;;;;;;;-5.60;100.00;100877.84;5010420;28;20045;-70
2021/12/26 03:02:09;;;;;;;5.65;2.45;;;;;;;-5.53;100.00;100878.69;5018813;28;20132;-69
2021/12/26 03:04:35;;;;;;;4.55;2.50;;;;;;;-5.63;100.00;100872.94;5033029;28;20048;-70
2021/12/26 03:07:04;;;;;;;5.68;2.67;;;;;;;-5.52;100.00;100874.22;5031485;28;20032;-70
2021/12/26 03:09:42;;;;;;;6.13;2.58;;;;;;;-5.47;100.00;100869.97;5024324;28;20037;-69
2021/12/26 03:12:09;;;;;;;9.88;3.00;;;;;;;-5.54;100.00;100866.44;5029008;28;20037;-70
2021/12/26 03:14:35;;;;;;;4.70;2.78;;;;;;;-5.72;100.00;100864.31;5034960;28;20045;-70
2021/12/26 03:17:01;;;;;;;3.22;2.25;;;;;;;-5.70;100.00;100866.78;5034709;28;20075;-69
2021/12/26 03:19:34;;;;;;;7.60;3.13;;;;;;;-5.59;100.00;100858.22;5034284;28;20068;-70
2021/12/26 03:21:59;;;;;;;5.53;2.65;;;;;;;-5.69;100.00;100857.78;5037032;28;20792;-70
2021/12/26 03:24:25;;;;;;;5.97;2.65;;;;;;;-5.59;100.00;100858.22;5034770;28;20049;-70
2021/12/26 03:26:57;;;;;;;3.30;2.70;;;;;;;-5.64;100.00;100859.84;5036641;28;20049;-70
2021/12/26 03:29:23;;;;;;;4.47;2.60;;;;;;;-5.67;100.00;100853.09;5036375;28;20052;-70
2021/12/26 03:31:48;;;;;;;4.60;2.58;;;;;;;-5.60;100.00;100856.59;5017376;28;20029;-70
2021/12/26 03:34:14;;;;;;;3.88;2.47;;;;;;;-5.55;100.00;100859.50;5034319;28;20370;-71
2021/12/26 03:36:39;;;;;;;6.60;2.85;;;;;;;-5.54;100.00;100852.34;5034182;28;20048;-70
2021/12/26 03:39:05;;;;;;;7.13;3.03;;;;;;;-5.50;100.00;100851.75;5017874;28;20040;-70
2021/12/26 03:41:31;;;;;;;3.97;2.47;;;;;;;-5.50;100.00;100862.38;5034826;28;20413;-71
2021/12/26 03:43:59;;;;;;;3.92;2.17;;;;;;;-5.54;100.00;100863.78;5018834;28;20121;-69
2021/12/26 03:46:24;;;;;;;3.80;2.58;;;;;;;-5.60;100.00;100861.91;5035323;28;20139;-70
2021/12/26 03:48:50;;;;;;;5.20;2.42;;;;;;;-5.54;100.00;100853.16;5035129;28;20508;-70
2021/12/26 03:51:18;;;;;;;6.55;2.92;;;;;;;-5.68;100.00;100854.09;5035048;28;20094;-69
2021/12/26 03:53:43;;;;;;;8.38;3.00;;;;;;;-5.56;100.00;100852.50;5034773;28;20924;-70
2021/12/26 03:56:09;;;;;;;3.88;2.63;;;;;;;-5.61;100.00;100857.63;5034520;28;20124;-70
2021/12/26 03:58:42;;;;;;;5.18;2.80;;;;;;;-5.57;100.00;100860.69;5034908;28;20103;-71
2021/12/26 04:01:08;;;;;;;5.13;2.30;;;;;;;-5.54;100.00;100863.78;5034469;28;20036;-69
2021/12/26 04:03:33;;;;;;;4.88;2.88;;;;;;;-5.41;100.00;100871.00;5035942;28;20037;-69
2021/12/26 04:06:00;;;;;;;4.50;2.67;;;;;;;-5.53;100.00;100861.94;5034889;28;20105;-69
2021/12/26 04:08:31;;;;;;;4.75;2.40;;;;;;;-5.60;100.00;100864.56;5034589;28;20696;-69
2021/12/26 04:10:57;;;;;;;6.28;2.70;;;;;;;-5.62;100.00;100863.94;5017771;28;20110;-69
2021/12/26 04:13:22;;;;;;;6.13;2.58;;;;;;;-5.46;100.00;100847.69;5035967;28;20507;-69
2021/12/26 04:15:48;;;;;;;4.95;2.60;;;;;;;-5.63;100.00;100854.34;5017131;28;20512;-69
2021/12/26 04:18:14;;;;;;;4.35;2.30;;;;;;;-5.59;100.00;100852.91;5033685;28;20530;-69
2021/12/26 04:20:40;;;;;;;2.97;2.42;;;;;;;-5.47;100.00;100855.81;5034475;28;20436;-70
2021/12/26 04:23:06;;;;;;;3.88;2.22;;;;;;;-5.46;100.00;100849.50;5033043;28;20044;-69
2021/12/26 04:25:32;;;;;;;5.15;2.10;;;;;;;-5.41;100.00;100856.88;5033422;28;20489;-69
2021/12/26 04:27:57;;;;;;;4.70;2.88;;;;;;;-5.52;100.00;100851.13;5035366;28;20029;-69
2021/12/26 04:30:24;;;;;;;4.60;2.33;;;;;;;-5.62;100.00;100850.66;5033796;28;20060;-69
2021/12/26 04:32:49;;;;;;;4.57;2.42;;;;;;;-5.51;100.00;100847.44;5035141;28;20592;-70
2021/12/26 04:35:16;;;;;;;4.95;2.50;;;;;;;-5.68;100.00;100843.47;5033414;28;20033;-71
2021/12/26 04:37:42;;;;;;;6.50;2.90;;;;;;;-5.67;100.00;100839.81;5033535;28;20150;-69
2021/12/26 04:40:10;;;;;;;5.43;2.90;;;;;;;-5.70;100.00;100840.22;5017416;28;20037;-71
2021/12/26 04:42:55;;;;;;;2.95;2.35;;;;;;;-5.50;100.00;100840.28;5018566;28;20049;-69
2021/12/26 04:45:27;;;;;;;;;;;;;;;-5.65;100.00;100843.06;4998566;28;20131;-70
2021/12/26 04:48:32;;;;;;;5.35;2.60;;;;;;;-5.62;100.00;100842.69;5018392;28;20375;-70
2021/12/26 04:50:58;;;;;;;3.35;2.08;;;;;;;-5.66;100.00;100841.44;5017087;28;20044;-68
2021/12/26 04:53:24;;;;;;;6.35;2.95;;;;;;;-5.65;100.00;100832.44;5033355;28;20033;-69
2021/12/26 04:55:49;;;;;;;5.20;2.67;;;;;;;-5.62;100.00;100837.38;5017389;28;20041;-69
2021/12/26 04:58:15;;;;;;;5.25;2.60;;;;;;;-5.57;100.00;100839.44;5032958;28;20790;-70
2021/12/26 05:00:40;;;;;;;4.90;2.72;;;;;;;-5.61;100.00;100823.09;5033166;28;20048;-70
2021/12/26 05:03:08;;;;;;;4.15;2.65;;;;;;;-5.63;100.00;100825.13;5020642;28;20049;-70
2021/12/26 05:05:33;;;;;;;3.70;2.50;;;;;;;-5.60;100.00;100819.41;5012750;28;20144;-68
2021/12/26 05:07:59;;;;;;;8.23;3.05;;;;;;;-5.59;100.00;100823.69;5014738;28;20037;-69
2021/12/26 05:10:27;;;;;;;3.95;2.13;;;;;;;-5.51;100.00;100828.03;5014372;28;20501;-70
2021/12/26 05:12:53;;;;;;;3.90;2.10;;;;;;;-5.45;100.00;100813.94;5014121;28;20073;-71
2021/12/26 05:15:21;;;;;;;5.60;2.40;;;;;;;-5.53;100.00;100812.25;5013437;28;20152;-69
2021/12/26 05:17:48;;;;;;;4.10;2.45;;;;;;;-5.41;100.00;100817.00;5012944;28;20466;-70
2021/12/26 05:20:14;;;;;;;4.28;2.28;;;;;;;-5.55;100.00;100806.34;5012777;28;20029;-70
2021/12/26 05:22:40;;;;;;;6.95;2.60;;;;;;;-5.57;100.00;100816.34;5013081;28;20627;-70
2021/12/26 05:25:07;;;;;;;4.45;2.17;;;;;;;-5.58;100.00;100806.75;5015339;28;20045;-72
2021/12/26 05:27:34;;;;;;;8.27;2.78;;;;;;;-5.60;100.00;100814.09;5013183;28;20053;-70
2021/12/26 05:30:00;;;;;;;4.95;2.85;;;;;;;-5.57;100.00;100804.91;5013002;28;20041;-70
2021/12/26 05:32:26;;;;;;;5.05;2.58;;;;;;;-5.62;100.00;100808.16;5013684;28;20580;-70
2021/12/26 05:34:52;;;;;;;4.82;2.40;;;;;;;-5.63;100.00;100806.53;4997420;28;20049;-70
2021/12/26 05:37:17;;;;;;;6.00;2.72;;;;;;;-5.68;100.00;100811.59;5013121;28;20042;-69
2021/12/26 05:39:42;;;;;;;7.80;3.33;;;;;;;-5.57;100.00;100805.72;5012570;28;20045;-70
2021/12/26 05:42:15;;;;;;;5.60;2.50;;;;;;;-5.65;100.00;100803.22;5012329;28;20033;-69
2021/12/26 05:44:44;;;;;;;4.75;2.55;;;;;;;-5.59;100.00;100802.44;4995611;28;20114;-69
2021/12/26 05:47:10;;;;;;;4.80;2.55;;;;;;;-5.67;100.00;100802.63;5012520;28;20026;-71
2021/12/26 05:49:53;;;;;;;4.45;2.80;;;;;;;-5.57;100.00;100803.06;5026299;28;20773;-69
2021/12/26 05:52:19;;;;;;;4.85;2.13;;;;;;;-5.51;100.00;100802.28;5031608;28;20033;-69
2021/12/26 05:54:50;;;;;;;8.15;2.67;;;;;;;-5.37;100.00;100797.81;5031388;28;20045;-69
2021/12/26 05:57:17;;;;;;;6.53;2.50;;;;;;;-5.33;100.00;100798.25;5031483;28;20841;-69
2021/12/26 05:59:43;;;;;;;4.80;2.30;;;;;;;-5.40;100.00;100795.56;5033623;28;20103;-69
2021/12/26 06:02:08;;;;;;;7.75;3.20;;;;;;;-5.44;100.00;100790.84;5028059;28;20372;-70
2021/12/26 06:04:36;;;;;;;3.70;2.45;;;;;;;-5.18;100.00;100798.88;5013118;28;20047;-70
2021/12/26 06:07:02;;;;;;;3.38;2.47;;;;;;;-5.03;100.00;100799.56;5014747;28;20041;-69
2021/12/26 06:09:28;;;;;;;3.95;2.33;;;;;;;-5.12;100.00;100798.09;4995790;28;20548;-70
2021/12/26 06:11:54;;;;;;;4.72;2.38;;;;;;;-5.07;100.00;100792.97;5011907;28;20037;-70
2021/12/26 06:14:19;;;;;;;4.32;2.40;;;;;;;-4.97;100.00;100799.75;5012647;28;20155;-70
2021/12/26 06:16:45;;;;;;;5.53;3.25;;;;;;;-4.85;100.00;100795.50;5014218;28;20053;-69
2021/12/26 06:19:29;;;;;;;4.03;2.30;;;;;;;-4.76;100.00;100788.94;5011848;28;20041;-70
2021/12/26 06:22:16;;;;;;;4.65;2.25;;;;;;;-4.74;100.00;100792.22;5013070;28;20053;-70
2021/12/26 06:25:01;;;;;;;3.65;2.20;;;;;;;-4.71;100.00;100796.28;5013788;28;20042;-70
2021/12/26 06:27:36;;;;;;;6.85;2.45;;;;;;;-4.65;100.00;100788.34;5011571;28;20045;-70
2021/12/26 06:30:20;;;;;;;5.07;2.40;;;;;;;-4.58;100.00;100791.00;5012970;28;20046;-70
2021/12/26 06:32:55;;;;;;;4.20;2.35;;;;;;;-4.60;100.00;100780.53;5014013;28;20042;-69
2021/12/26 06:35:39;;;;;;;3.78;2.15;;;;;;;-4.44;100.00;100791.81;5014008;28;20115;-70
2021/12/26 06:38:23;;;;;;;3.60;2.00;;;;;;;-4.41;100.00;100786.06;5012490;28;20182;-69
2021/12/26 06:41:17;;;;;;;5.30;2.30;;;;;;;-4.42;100.00;100781.75;5010573;28;20619;-70
2021/12/26 06:44:12;;;;;;;4.88;2.65;;;;;;;-4.38;100.00;100775.00;5010365;28;20513;-70
2021/12/26 06:46:49;;;;;;;5.60;2.65;;;;;;;-4.32;100.00;100768.84;5015908;28;20049;-69
2021/12/26 06:49:25;;;;;;;5.05;2.80;;;;;;;-4.14;100.00;100771.69;5022864;28;20569;-69
2021/12/26 06:51:50;;;;;;;4.25;2.20;;;;;;;-4.12;100.00;100774.97;5017923;28;20041;-70
2021/12/26 06:54:16;;;;;;;2.92;2.38;;;;;;;-4.19;100.00;100774.16;5015799;28;20252;-71
2021/12/26 06:56:42;;;;;;;5.75;3.55;;;;;;;-4.10;100.00;100780.91;5018621;28;20129;-70
2021/12/26 06:59:07;;;;;;;3.45;2.22;;;;;;;-4.13;100.00;100783.97;5018331;28;20564;-70
2021/12/26 07:01:34;;;;;;;3.72;2.30;;;;;;;-3.91;100.00;100781.06;5019762;28;20037;-69
2021/12/26 07:03:59;;;;;;;5.18;2.53;;;;;;;-3.95;100.00;100779.84;5037389;28;20048;-69
2021/12/26 07:06:26;;;;;;;6.47;2.55;;;;;;;-3.92;100.00;100782.09;5038195;28;20462;-69
2021/12/26 07:08:55;;;;;;;11.48;2.33;;;;;;;-3.84;100.00;100787.16;5037499;28;20045;-69
2021/12/26 07:11:21;;;;;;;4.80;2.58;;;;;;;-3.83;100.00;100775.50;5036495;28;20126;-69
2021/12/26 07:13:47;;;;;;;3.75;2.30;;;;;;;-3.93;100.00;100773.28;5039751;28;20054;-70
2021/12/26 07:16:13;;;;;;;3.67;2.20;;;;;;;-3.80;100.00;100769.75;5043570;28;20063;-70
2021/12/26 07:18:41;;;;;;;4.78;2.20;;;;;;;-3.74;100.00;100784.88;5044304;28;20549;-71
2021/12/26 07:21:09;;;;;;;3.28;2.30;;;;;;;-3.61;100.00;100780.53;5044735;28;20033;-69
2021/12/26 07:23:47;;;;;;;3.85;2.45;;;;;;;-3.71;100.00;100781.81;5044019;28;20390;-69
2021/12/26 07:26:16;;;;;;;5.75;2.72;;;;;;;-3.67;100.00;100775.00;5044406;28;20087;-69
2021/12/26 07:28:42;;;;;;;3.92;2.55;;;;;;;-3.63;100.00;100782.59;5045615;28;20037;-69
2021/12/26 07:31:19;;;;;;;4.88;2.50;;;;;;;-3.58;100.00;100786.25;5043441;28;20082;-70
2021/12/26 07:33:49;;;;;;;5.35;2.33;;;;;;;-3.63;100.00;100779.94;5042797;28;20041;-69
2021/12/26 07:36:14;;;;;;;3.85;2.38;;;;;;;-3.50;100.00;100787.88;5046007;28;20094;-70
2021/12/26 07:38:59;;;;;;;6.22;2.80;;;;;;;-3.57;100.00;100792.41;5047882;28;20076;-70
2021/12/26 07:41:28;;;;;;;5.05;3.15;;;;;;;-3.57;100.00;100790.56;5044839;28;20429;-70
2021/12/26 07:43:54;;;;;;;2.88;2.10;;;;;;;-3.47;100.00;100798.09;5042588;28;20032;-69
2021/12/26 07:46:38;;;;;;;3.25;2.28;;;;;;;-3.55;100.00;100801.00;5043787;28;20490;-69
2021/12/26 07:49:12;;;;;;;7.00;2.63;;;;;;;-3.46;100.00;100797.06;5023063;28;20560;-69
2021/12/26 07:52:03;;;;;;;6.25;2.92;;;;;;;-3.50;100.00;100782.53;5005773;28;20095;-69
2021/12/26 07:54:47;;;;;;;4.03;2.45;;;;;;;-3.47;100.00;100779.44;5026807;28;20080;-71
2021/12/26 07:57:31;;;;;;;5.80;2.90;;;;;;;-3.61;100.00;100785.84;5026770;28;20056;-70
2021/12/26 08:00:17;;;;;;;4.13;2.33;;;;;;;-3.68;100.00;100781.38;5026859;28;20064;-70
2021/12/26 08:02:57;;;;;;;7.70;3.08;;;;;;;-3.68;100.00;100786.72;5038542;28;20037;-69
2021/12/26 08:06:02;;;;;;;8.80;3.85;;;;;;;-3.45;100.00;100782.72;5047502;28;20465;-69
2021/12/26 08:08:42;;;;;;;4.97;2.67;;;;;;;-3.69;100.00;100779.75;5045737;28;20037;-69
2021/12/26 08:11:08;;;;;;;5.00;2.55;;;;;;;-3.75;100.00;100780.59;5044895;28;20045;-69
2021/12/26 08:13:34;;;;;;;6.25;2.60;;;;;;;-3.63;100.00;100788.75;5044790;28;20188;-70
2021/12/26 08:15:59;;;;;;;5.90;3.35;;;;;;;-3.56;100.00;100788.72;5043661;28;20485;-71
2021/12/26 08:18:25;;;;;;;12.65;5.60;;;;;;;-3.41;100.00;100789.25;5028642;28;20037;-71
2021/12/26 08:20:50;;;;;;;7.57;4.22;;;;;;;-3.45;100.00;100788.06;5029076;28;20037;-70
2021/12/26 08:23:15;;;;;;;11.63;4.07;;;;;;;-3.45;100.00;100785.38;5044906;28;20036;-71
2021/12/26 08:25:41;;;;;;;5.63;2.75;;;;;;;-3.61;100.00;100785.84;5047483;28;20409;-68
2021/12/26 08:28:06;;;;;;;5.93;3.30;;;;;;;-3.20;100.00;100788.13;5038769;28;20041;-69
2021/12/26 08:30:34;;;;;;;5.60;3.00;;;;;;;-3.31;100.00;100781.63;5046034;28;20307;-69
2021/12/26 08:33:05;;;;;;;7.13;3.60;;;;;;;-3.22;100.00;100785.69;5045369;28;20029;-70
2021/12/26 08:35:30;;;;;;;7.43;4.25;;;;;;;-3.19;100.00;100781.75;5028201;28;20252;-70
2021/12/26 08:37:56;;;;;;;10.70;4.40;;;;;;;-3.14;100.00;100770.44;5031767;28;20053;-71
2021/12/26 08:40:21;;;;;;;6.65;4.00;;;;;;;-3.03;100.00;100767.09;5034237;28;20049;-69
2021/12/26 08:42:46;;;;;;;5.97;3.67;;;;;;;-3.21;100.00;100781.97;5036369;28;20037;-69
2021/12/26 08:45:12;;;;;;;10.38;4.30;;;;;;;-3.30;100.00;100777.09;5025003;28;20204;-70
2021/12/26 08:47:38;;;;;;;16.80;6.47;;;;;;;-3.18;100.00;100783.38;5027145;28;20041;-70
2021/12/26 08:50:05;;;;;;;9.20;3.88;;;;;;;-3.32;100.00;100784.50;5026818;28;20091;-70
2021/12/26 08:52:31;;;;;;;7.80;3.38;;;;;;;-3.06;100.00;100778.19;5024886;28;20045;-71
2021/12/26 08:54:57;;;;;;;9.40;4.80;;;;;;;-3.17;100.00;100785.03;5026070;28;20051;-70
2021/12/26 08:57:22;;;;;;;11.90;3.50;;;;;;;-3.24;100.00;100797.59;5020840;28;20039;-72
2021/12/26 08:59:47;;;;;;;9.45;5.78;;;;;;;-3.24;100.00;100793.06;5023485;28;20068;-70
2021/12/26 09:02:14;;;;;;;5.40;3.90;;;;;;;-3.42;100.00;100790.28;5027987;28;20167;-70
2021/12/26 09:04:40;;;;;;;12.68;6.18;;;;;;;-3.24;100.00;100790.41;5054716;28;20051;-69
2021/12/26 09:07:07;;;;;;;4.88;3.53;;;;;;;-3.12;100.00;100795.06;5040962;28;20039;-70
2021/12/26 09:09:34;;;;;;;5.68;2.95;;;;;;;-3.38;100.00;100791.50;5049378;28;20049;-71
2021/12/26 09:12:00;;;;;;;7.28;3.72;;;;;;;-3.30;100.00;100787.78;5048979;28;20313;-70
2021/12/26 09:14:31;;;;;;;5.32;3.17;;;;;;;-3.11;100.00;100786.00;5042110;28;20040;-71
2021/12/26 09:16:58;;;;;;;6.80;3.90;;;;;;;-3.10;100.00;100782.31;5036782;28;20112;-70
2021/12/26 09:19:27;;;;;;;5.78;2.90;;;;;;;-3.28;100.00;100772.38;5033975;28;20114;-70
2021/12/26 09:21:53;;;;;;;6.38;3.00;;;;;;;-3.21;100.00;100773.97;5033444;28;20046;-70
2021/12/26 09:24:19;;;;;;;7.68;2.75;;;;;;;-3.05;100.00;100769.16;5047050;28;20459;-70
2021/12/26 09:26:44;;;;;;;6.28;3.97;;;;;;;-3.05;100.00;100769.16;5052510;28;20116;-71
2021/12/26 09:29:10;;;;;;;5.90;3.38;;;;;;;-2.98;100.00;100764.59;5039531;28;20040;-70
2021/12/26 09:31:35;;;;;;;14.20;4.22;;;;;;;-2.92;100.00;100766.41;5053775;28;20028;-71
2021/12/26 09:34:01;;;;;;;14.05;5.63;;;;;;;-2.73;100.00;100756.63;5050906;28;20040;-70
2021/12/26 09:36:26;;;;;;;21.00;8.80;;;;;;;-2.80;100.00;100751.31;5045460;28;20049;-71
2021/12/26 09:38:52;;;;;;;23.90;9.55;;;;;;;-2.86;100.00;100752.19;5033383;28;20463;-71
2021/12/26 09:41:17;;;;;;;17.90;8.75;;;;;;;-2.75;100.00;100748.81;5044259;28;20067;-70
2021/12/26 09:43:43;;;;;;;13.80;6.70;;;;;;;-2.61;100.00;100762.06;5024325;28;20126;-70
2021/12/26 09:46:08;;;;;;;15.85;7.00;;;;;;;-2.58;100.00;100764.28;5038113;28;20048;-69
2021/12/26 09:48:34;;;;;;;13.05;5.95;;;;;;;-2.70;100.00;100766.84;5029536;28;20041;-69
2021/12/26 09:50:59;;;;;;;11.40;4.95;;;;;;;-2.61;100.00;100760.22;5037674;28;20032;-71
2021/12/26 09:53:25;;;;;;;15.73;5.70;;;;;;;-2.58;100.00;100764.28;5035278;28;20254;-70
2021/12/26 09:55:51;;;;;;;13.23;5.30;;;;;;;-2.38;100.00;100764.94;5029891;28;20056;-70
2021/12/26 09:58:16;;;;;;;9.48;4.35;;;;;;;-2.30;100.00;100761.97;5028347;28;20566;-70
2021/12/26 10:00:45;;;;;;;9.10;4.78;;;;;;;-2.43;100.00;100761.28;5042887;28;20036;-70
2021/12/26 10:03:30;;;;;;;10.35;4.43;;;;;;;-2.39;100.00;100759.78;5034267;28;20036;-71
2021/12/26 10:06:17;;;;;;;9.43;4.22;;;;;;;-2.23;100.00;100763.78;5041894;28;20131;-70
2021/12/26 10:08:57;;;;;;;6.25;3.90;;;;;;;-2.26;100.00;100756.19;5013090;28;20044;-71
2021/12/26 10:11:26;;;;;;;7.70;4.70;;;;;;;-2.10;100.00;100755.59;5019465;28;20448;-71
2021/12/26 10:13:58;;;;;;;10.82;3.95;;;;;;;-2.05;100.00;100753.91;5038663;28;20378;-71
2021/12/26 10:16:26;;;;;;;16.27;5.03;;;;;;;-1.91;100.00;100754.56;5038838;28;20075;-71
2021/12/26 10:18:53;;;;;;;6.68;4.40;;;;;;;-1.96;100.00;100746.41;5019585;28;20051;-69
2021/12/26 10:21:25;;;;;;;10.13;4.30;;;;;;;-1.96;100.00;100751.75;5041897;28;20060;-70
2021/12/26 10:23:51;;;;;;;7.30;4.38;;;;;;;-1.85;100.00;100752.88;5024722;28;20517;-70
2021/12/26 10:26:21;;;;;;;6.45;4.22;;;;;;;-1.87;100.00;100749.59;5045087;28;20050;-69
2021/12/26 10:29:13;;;;;;;9.63;4.25;;;;;;;-1.89;100.00;100749.84;5040614;28;20052;-70
2021/12/26 10:31:58;;;;;;;7.43;3.85;;;;;;;-1.96;100.00;100741.06;5015093;28;20100;-70
2021/12/26 10:34:33;;;;;;;8.70;4.00;;;;;;;-1.71;100.00;100734.81;5032465;28;20411;-71
2021/12/26 10:37:00;;;;;;;8.68;4.57;;;;;;;-1.71;100.00;100737.50;5033270;28;20052;-70
2021/12/26 10:39:32;;;;;;;8.90;4.90;;;;;;;-1.74;100.00;100728.06;5035436;28;20119;-69
2021/12/26 10:42:02;;;;;;;8.48;3.67;;;;;;;-1.88;100.00;100722.06;5040500;28;20516;-70
2021/12/26 10:44:32;;;;;;;8.73;4.43;;;;;;;-1.65;100.00;100725.91;5023792;28;20041;-71
2021/12/26 10:47:01;;;;;;;8.75;4.25;;;;;;;-1.59;100.00;100714.28;5023201;28;20037;-70
2021/12/26 10:49:34;;;;;;;8.55;5.00;;;;;;;-1.47;100.00;100709.81;5024912;28;20056;-70
2021/12/26 10:52:00;;;;;;;9.57;5.18;;;;;;;-1.34;100.00;100708.78;5028069;28;20038;-70
2021/12/26 10:54:31;;;;;;;9.32;4.93;;;;;;;-1.32;100.00;100711.25;5020406;28;20041;-71
2021/12/26 10:57:19;;;;;;;10.65;5.28;;;;;;;-1.21;100.00;100707.78;5021099;28;20045;-71
2021/12/26 10:59:48;;;;;;;10.57;5.10;;;;;;;-1.27;100.00;100701.50;5025391;28;20033;-72
2021/12/26 11:02:22;;;;;;;10.77;5.15;;;;;;;-1.20;100.00;100701.38;5026126;28;20044;-72
2021/12/26 11:04:59;;;;;;;9.38;5.07;;;;;;;-1.27;100.00;100700.69;5019445;28;20041;-70
2021/12/26 11:07:24;;;;;;;14.18;5.25;;;;;;;-1.16;100.00;100697.22;5020580;28;20041;-70
2021/12/26 11:10:06;;;;;;;8.73;5.03;;;;;;;-1.05;100.00;100683.03;5020504;28;20048;-69
2021/12/26 11:12:44;;;;;;;7.63;4.82;;;;;;;-1.20;100.00;100691.50;5028372;28;20041;-68
2021/12/26 11:15:11;;;;;;;11.15;4.88;;;;;;;-1.21;100.00;100689.06;5031851;28;20033;-70
2021/12/26 11:17:49;;;;;;;8.52;4.57;;;;;;;-1.16;100.00;100687.34;5020616;28;20770;-71
2021/12/26 11:20:33;;;;;;;10.82;4.78;;;;;;;-0.96;100.00;100687.03;5027956;28;20068;-70
2021/12/26 11:23:00;;;;;;;10.13;5.40;;;;;;;-0.81;100.00;100683.06;5037664;28;20033;-69
2021/12/26 11:25:26;;;;;;;10.07;5.68;;;;;;;-0.70;100.00;100676.88;5034287;28;20037;-72
2021/12/26 11:27:52;;;;;;;17.58;6.00;;;;;;;-0.61;100.00;100672.84;5028639;28;20161;-71
2021/12/26 11:30:19;;;;;;;11.40;5.47;;;;;;;-0.53;100.00;100664.41;5034445;28;20039;-72